Aviation Digital Data Service (ADDS)

Output produced by METARs form (0036 UTC 23 March 2019)
found at http://www.aviationweather.gov/metar/data/
 
Forecast for: PLCH (CHRISTMAS/CASSID, UM, US)
Text: TAF PLCH 230033Z 2300/2324 09008KT 9999 -SHRA SCT018 BKN040
Forecast period: 0000 UTC 23 March 2019 to 0000 UTC 24 March 2019
Forecast type: FROM: standard forecast or significant change
Winds: from the E (90 degrees) at 9 MPH (8 knots; 4.1 m/s)
Visibility: 6 or more miles 10+ km)
Ceiling: 4000 feet AGL
Clouds: scattered clouds at 1800 feet AGL
broken clouds at 4000 feet AGL
Weather: -SHRA  (light rain showers)
Text: PROB40
Forecast period: 0000 to 1200 UTC 23 March 2019
Forecast type: TEMPORARY: The following changes expected for less than half the time period
Visibility: 1.86 miles (2.99 km)
Ceiling: 1500 feet AGL
Clouds: broken clouds at 1500 feet AGL
few clouds at 1800 feet AGL
Weather: TSRA  (rain associated with thunderstorm(s))